createdAt,value
2023-06-27T00:00:12.794Z,29.34
2023-06-27T00:03:00.000Z,29.08
2023-06-27T00:05:47.357Z,29.34
2023-06-27T00:08:34.545Z,29.20
2023-06-27T00:11:21.436Z,29.65
2023-06-27T00:14:10.263Z,29.24
2023-06-27T00:16:58.490Z,29.35
2023-06-27T00:19:47.987Z,29.24
2023-06-27T00:22:34.925Z,29.74
2023-06-27T00:25:21.800Z,29.83
2023-06-27T00:28:08.698Z,29.57
2023-06-27T00:30:55.557Z,29.86
2023-06-27T00:33:42.472Z,30.00
2023-06-27T00:36:29.464Z,30.09
2023-06-27T00:39:16.358Z,29.94
2023-06-27T00:42:03.430Z,30.16
2023-06-27T00:44:50.372Z,30.55
2023-06-27T00:47:37.775Z,30.50
2023-06-27T00:50:25.540Z,30.43
2023-06-27T00:53:12.960Z,30.53
2023-06-27T00:55:59.881Z,30.75
2023-06-27T00:58:46.765Z,30.69
2023-06-27T01:01:33.640Z,30.92
2023-06-27T01:04:20.612Z,31.09
2023-06-27T01:07:12.240Z,31.13
2023-06-27T01:10:05.061Z,31.30
2023-06-27T01:13:07.148Z,31.46
2023-06-27T01:15:54.252Z,31.40
2023-06-27T01:18:42.472Z,31.46
2023-06-27T01:21:29.787Z,31.44
2023-06-27T01:24:16.708Z,31.47
2023-06-27T01:27:04.230Z,31.51
2023-06-27T01:29:51.298Z,31.84
2023-06-27T01:32:50.927Z,32.13
2023-06-27T01:35:49.898Z,32.02
2023-06-27T01:38:39.617Z,31.97
2023-06-27T01:41:29.059Z,31.84
2023-06-27T01:44:17.314Z,32.00
2023-06-27T01:47:04.178Z,32.34
2023-06-27T01:49:51.485Z,32.21
2023-06-27T01:52:38.349Z,32.52
2023-06-27T01:55:25.300Z,32.34
2023-06-27T01:58:12.458Z,32.48
2023-06-27T02:00:59.463Z,32.28
2023-06-27T02:03:46.425Z,32.56
2023-06-27T02:06:33.252Z,32.10
2023-06-27T02:09:20.168Z,32.27
2023-06-27T02:12:07.572Z,32.42
2023-06-27T02:14:54.487Z,32.36
2023-06-27T02:17:41.737Z,32.33
2023-06-27T02:20:29.962Z,32.52
2023-06-27T02:23:16.843Z,32.16
2023-06-27T02:26:04.730Z,32.25
2023-06-27T02:28:51.590Z,32.15
2023-06-27T02:31:38.505Z,32.25
2023-06-27T02:34:25.370Z,32.21
2023-06-27T02:37:12.249Z,32.19
2023-06-27T02:39:59.074Z,31.85
2023-06-27T02:42:45.974Z,31.96
2023-06-27T02:45:32.965Z,31.90
2023-06-27T02:48:19.868Z,31.79
2023-06-27T02:51:06.809Z,31.85
2023-06-27T02:53:53.752Z,31.85
2023-06-27T02:56:40.631Z,31.78
2023-06-27T02:59:27.482Z,31.73
2023-06-27T03:02:14.460Z,31.83
2023-06-27T03:05:01.372Z,31.96
2023-06-27T03:07:48.247Z,31.75
2023-06-27T03:10:35.147Z,31.94
2023-06-27T03:13:22.231Z,32.00
2023-06-27T03:16:09.156Z,32.10
2023-06-27T03:18:56.049Z,31.87
2023-06-27T03:21:42.910Z,32.00
2023-06-27T03:24:29.790Z,32.06
2023-06-27T03:30:06.511Z,32.08
2023-06-27T03:32:53.423Z,31.98
2023-06-27T03:35:40.676Z,32.06
2023-06-27T03:38:27.808Z,32.00
2023-06-27T03:41:14.688Z,31.98
2023-06-27T03:44:02.004Z,32.04
2023-06-27T03:46:49.011Z,32.00
2023-06-27T03:49:35.925Z,31.85
2023-06-27T03:52:22.838Z,31.87
2023-06-27T03:55:09.690Z,32.01
2023-06-27T03:57:56.536Z,31.86
2023-06-27T04:00:44.103Z,31.94
2023-06-27T04:03:31.072Z,31.97
2023-06-27T04:06:19.664Z,31.98
2023-06-27T04:09:07.145Z,32.02
2023-06-27T04:11:54.103Z,32.11
2023-06-27T04:14:41.313Z,32.09
2023-06-27T04:17:28.280Z,32.11
2023-06-27T04:20:15.377Z,32.08
2023-06-27T04:23:03.228Z,32.10
2023-06-27T04:26:04.117Z,32.33
2023-06-27T04:28:52.642Z,32.27
2023-06-27T04:31:39.671Z,32.42
2023-06-27T04:34:26.954Z,32.26
2023-06-27T04:37:13.838Z,32.31
2023-06-27T04:40:00.773Z,32.34
2023-06-27T04:42:48.294Z,32.35
2023-06-27T04:45:36.092Z,32.22
2023-06-27T04:48:22.936Z,32.27
2023-06-27T04:51:09.771Z,32.17
2023-06-27T04:53:56.939Z,32.26
2023-06-27T04:56:44.015Z,32.27
2023-06-27T04:59:32.467Z,32.40
2023-06-27T05:02:19.463Z,32.28
2023-06-27T05:05:09.206Z,32.18
2023-06-27T05:07:56.294Z,32.27
2023-06-27T05:10:44.558Z,32.36
2023-06-27T05:13:33.734Z,32.32
2023-06-27T05:16:20.976Z,32.40
2023-06-27T05:19:10.476Z,32.46
2023-06-27T05:21:57.410Z,32.63
2023-06-27T05:24:44.264Z,32.64
2023-06-27T05:27:31.192Z,32.62
2023-06-27T05:30:18.112Z,32.60
2023-06-27T05:33:05.313Z,32.57
2023-06-27T05:35:52.224Z,32.93
2023-06-27T05:38:39.066Z,32.96
2023-06-27T05:41:26.073Z,32.78
2023-06-27T05:44:12.873Z,32.73
2023-06-27T05:46:59.927Z,32.61
2023-06-27T05:49:46.825Z,32.72
2023-06-27T05:52:33.788Z,32.76
2023-06-27T05:55:20.732Z,32.68
2023-06-27T05:58:07.689Z,32.92
2023-06-27T06:00:55.827Z,33.01
2023-06-27T06:03:44.594Z,33.14
2023-06-27T06:06:34.775Z,33.67
2023-06-27T06:09:21.737Z,33.56
2023-06-27T06:12:08.966Z,33.78
2023-06-27T06:14:55.893Z,33.77
2023-06-27T06:17:42.751Z,33.82
2023-06-27T06:20:30.620Z,34.00
2023-06-27T06:23:17.462Z,33.88
2023-06-27T06:26:04.318Z,34.02
2023-06-27T06:28:51.235Z,33.84
2023-06-27T06:31:38.214Z,33.34
2023-06-27T06:34:25.109Z,33.26
2023-06-27T06:37:11.966Z,32.81
2023-06-27T06:39:58.874Z,32.64
2023-06-27T06:42:45.749Z,32.58
2023-06-27T06:45:32.633Z,32.52
2023-06-27T06:48:22.731Z,32.66
2023-06-27T06:51:09.617Z,33.28
2023-06-27T06:53:56.526Z,33.33
2023-06-27T06:56:43.436Z,33.26
2023-06-27T06:59:30.259Z,33.26
2023-06-27T07:02:17.514Z,33.06
2023-06-27T07:05:05.846Z,33.24
2023-06-27T07:07:52.770Z,33.17
2023-06-27T07:10:39.957Z,33.06
2023-06-27T07:13:26.811Z,32.66
2023-06-27T07:16:13.836Z,32.49
2023-06-27T07:19:00.669Z,32.43
2023-06-27T07:21:47.630Z,32.35
2023-06-27T07:24:34.549Z,32.36
2023-06-27T07:27:21.416Z,32.38
2023-06-27T07:30:09.248Z,32.50
2023-06-27T07:32:56.183Z,32.36
2023-06-27T07:35:43.123Z,32.55
2023-06-27T07:38:30.035Z,32.62
2023-06-27T07:41:17.347Z,32.58
2023-06-27T07:44:04.274Z,32.64
2023-06-27T07:46:51.232Z,32.22
2023-06-27T07:49:40.617Z,32.09
2023-06-27T07:52:27.568Z,31.82
2023-06-27T07:55:14.516Z,31.79
2023-06-27T07:58:01.406Z,31.73
2023-06-27T08:00:48.195Z,31.75
2023-06-27T08:03:35.196Z,31.01
2023-06-27T08:06:22.488Z,31.80
2023-06-27T08:09:09.545Z,32.13
2023-06-27T08:11:56.394Z,32.38
2023-06-27T08:14:44.787Z,31.84
2023-06-27T08:17:31.681Z,31.81
2023-06-27T08:20:19.214Z,32.20
2023-06-27T08:23:07.225Z,32.03
2023-06-27T08:25:55.241Z,31.89
2023-06-27T08:28:42.840Z,31.65
2023-06-27T08:31:29.758Z,31.52
2023-06-27T08:34:17.593Z,31.08
2023-06-27T08:37:04.580Z,31.00
2023-06-27T08:39:53.040Z,31.03
2023-06-27T08:42:39.889Z,31.06
2023-06-27T08:45:26.754Z,31.25
2023-06-27T08:48:15.760Z,31.20
2023-06-27T08:51:03.411Z,31.33
2023-06-27T08:53:53.363Z,31.09
2023-06-27T08:56:41.461Z,31.03
2023-06-27T08:59:32.878Z,31.20
2023-06-27T09:02:19.875Z,31.24
2023-06-27T09:05:07.525Z,31.11
2023-06-27T09:07:54.465Z,31.19
2023-06-27T09:10:42.035Z,31.16
2023-06-27T09:13:29.112Z,31.23
2023-06-27T09:16:17.198Z,31.42
2023-06-27T09:19:06.038Z,31.19
2023-06-27T09:21:54.950Z,30.77
2023-06-27T09:24:43.036Z,30.73
2023-06-27T09:27:31.238Z,30.76
2023-06-27T09:30:18.185Z,30.64
2023-06-27T09:33:05.423Z,30.84
2023-06-27T09:36:01.935Z,31.12
2023-06-27T09:38:54.687Z,31.09
2023-06-27T09:41:46.553Z,31.03
2023-06-27T09:44:33.547Z,31.02
2023-06-27T09:47:25.654Z,31.33
2023-06-27T09:50:12.595Z,31.31
2023-06-27T09:53:00.571Z,31.61
2023-06-27T09:55:47.452Z,31.39
2023-06-27T09:58:35.593Z,31.57
2023-06-27T10:01:24.523Z,31.43
2023-06-27T10:04:14.057Z,31.49
2023-06-27T10:07:02.963Z,31.32
2023-06-27T10:09:51.156Z,31.41
2023-06-27T10:12:38.732Z,31.41
2023-06-27T10:15:25.637Z,31.16
2023-06-27T10:18:12.492Z,31.11
2023-06-27T10:20:59.771Z,31.41
2023-06-27T10:23:49.840Z,30.89
2023-06-27T10:26:37.291Z,31.16
2023-06-27T10:29:25.126Z,31.03
2023-06-27T10:32:15.944Z,31.19
2023-06-27T10:35:10.002Z,31.27
2023-06-27T10:38:16.336Z,31.13
2023-06-27T10:41:07.903Z,31.13
2023-06-27T10:43:54.905Z,30.98
2023-06-27T10:46:41.736Z,31.01
2023-06-27T10:49:37.899Z,30.99
2023-06-27T10:52:26.009Z,31.23
2023-06-27T10:55:19.771Z,31.05
2023-06-27T10:58:11.829Z,31.04
2023-06-27T11:01:00.941Z,31.14
2023-06-27T11:03:53.786Z,30.98
2023-06-27T11:06:46.705Z,30.96
2023-06-27T11:09:34.177Z,30.98
2023-06-27T11:12:22.584Z,31.20
2023-06-27T11:15:09.507Z,31.25
2023-06-27T11:17:56.558Z,30.92
2023-06-27T11:20:44.325Z,30.98
2023-06-27T11:23:31.439Z,31.19
2023-06-27T11:26:22.073Z,31.08
2023-06-27T11:29:08.942Z,31.01
2023-06-27T11:31:56.678Z,31.26
2023-06-27T11:34:43.685Z,31.13
2023-06-27T11:37:30.702Z,30.88
2023-06-27T11:40:17.953Z,31.01
2023-06-27T11:43:08.933Z,31.15
2023-06-27T11:46:01.781Z,31.10
2023-06-27T11:48:49.011Z,30.88
2023-06-27T11:51:40.417Z,30.94
2023-06-27T11:54:27.266Z,30.90
2023-06-27T11:57:14.439Z,30.92
2023-06-27T12:00:01.293Z,30.98
2023-06-27T12:02:52.898Z,31.05
2023-06-27T12:05:45.566Z,30.98
2023-06-27T12:08:34.165Z,30.75
2023-06-27T12:11:27.195Z,30.90
2023-06-27T12:14:22.225Z,31.01
2023-06-27T12:17:29.301Z,31.08
2023-06-27T12:20:16.197Z,31.05
2023-06-27T12:23:03.141Z,31.07
2023-06-27T12:25:50.365Z,31.06
2023-06-27T12:29:01.255Z,31.08
2023-06-27T12:31:48.108Z,31.04
2023-06-27T12:34:37.244Z,31.17
2023-06-27T12:37:24.480Z,31.20
2023-06-27T12:40:12.555Z,31.13
2023-06-27T12:42:59.402Z,31.17
2023-06-27T12:46:04.744Z,31.05
2023-06-27T12:48:51.620Z,31.17
2023-06-27T12:51:38.573Z,31.23
2023-06-27T12:54:25.390Z,31.22
2023-06-27T12:57:12.280Z,31.07
2023-06-27T13:00:00.993Z,31.37
2023-06-27T13:02:57.821Z,31.38
2023-06-27T13:05:56.128Z,31.48
2023-06-27T13:08:42.972Z,31.41
2023-06-27T13:11:29.771Z,31.41
2023-06-27T13:14:16.635Z,31.51
2023-06-27T13:17:06.594Z,31.63
2023-06-27T13:19:53.495Z,31.51
2023-06-27T13:22:41.093Z,31.58
2023-06-27T13:25:28.513Z,31.56
2023-06-27T13:28:15.369Z,31.39
2023-06-27T13:31:02.332Z,31.37
2023-06-27T13:33:49.917Z,31.46
2023-06-27T13:36:36.815Z,31.49
2023-06-27T13:39:23.702Z,31.44
2023-06-27T13:42:12.085Z,31.34
2023-06-27T13:45:00.966Z,31.40
2023-06-27T13:47:47.963Z,31.31
2023-06-27T13:50:34.835Z,31.44
2023-06-27T13:53:22.713Z,31.24
2023-06-27T13:56:10.628Z,31.14
2023-06-27T13:58:59.139Z,31.19
2023-06-27T14:01:45.996Z,31.06
2023-06-27T14:04:33.790Z,31.09
2023-06-27T14:07:20.724Z,31.08
2023-06-27T14:10:08.460Z,31.08
2023-06-27T14:12:55.651Z,31.06
2023-06-27T14:15:42.802Z,31.07
2023-06-27T14:18:29.727Z,31.03
2023-06-27T14:21:17.841Z,31.02
2023-06-27T14:24:05.959Z,30.97
2023-06-27T14:26:52.816Z,30.98
2023-06-27T14:29:39.718Z,30.95
2023-06-27T14:32:26.701Z,30.93
2023-06-27T14:35:13.769Z,30.93
2023-06-27T14:38:00.718Z,30.98
2023-06-27T14:40:48.406Z,30.92
2023-06-27T14:43:35.298Z,30.84
2023-06-27T14:46:22.152Z,30.80
2023-06-27T14:49:08.982Z,30.86
2023-06-27T14:51:55.830Z,30.95
2023-06-27T14:54:42.744Z,30.89
2023-06-27T14:57:29.726Z,30.82
2023-06-27T15:00:19.445Z,30.68
2023-06-27T15:03:07.559Z,30.78
2023-06-27T15:05:57.430Z,30.76
2023-06-27T15:08:44.488Z,30.73
2023-06-27T15:11:31.297Z,30.80
2023-06-27T15:14:18.330Z,30.66
2023-06-27T15:17:05.855Z,30.70
2023-06-27T15:19:55.131Z,30.64
2023-06-27T15:22:44.794Z,30.36
2023-06-27T15:25:34.163Z,27.41
2023-06-27T15:28:24.427Z,28.22
2023-06-27T15:31:12.833Z,27.84
2023-06-27T15:33:59.836Z,26.84
2023-06-27T15:36:46.742Z,27.40
2023-06-27T15:39:33.876Z,27.43
2023-06-27T15:42:22.168Z,27.43
2023-06-27T15:45:09.262Z,27.11
2023-06-27T15:47:56.224Z,27.48
2023-06-27T15:50:43.231Z,27.50
2023-06-27T15:53:30.516Z,27.59
2023-06-27T15:56:19.891Z,27.32
2023-06-27T15:59:07.325Z,27.51
2023-06-27T16:01:54.233Z,27.47
2023-06-27T16:04:41.259Z,27.40
2023-06-27T16:07:28.256Z,27.43
2023-06-27T16:10:15.140Z,27.34
2023-06-27T16:13:01.984Z,27.51
2023-06-27T16:15:48.895Z,27.59
2023-06-27T16:18:36.088Z,27.43
2023-06-27T16:21:25.818Z,27.48
2023-06-27T16:24:12.718Z,27.42
2023-06-27T16:26:59.669Z,27.53
2023-06-27T16:29:46.632Z,27.48
2023-06-27T16:32:34.780Z,27.68
2023-06-27T16:35:22.482Z,27.69
2023-06-27T16:38:10.644Z,27.72
2023-06-27T16:40:57.534Z,27.76
2023-06-27T16:43:44.467Z,27.73
2023-06-27T16:46:35.985Z,27.72
2023-06-27T16:49:22.815Z,27.76
2023-06-27T16:52:09.683Z,27.85
2023-06-27T16:54:56.505Z,27.82
2023-06-27T16:57:44.442Z,27.75
2023-06-27T17:00:31.425Z,27.90
2023-06-27T17:03:19.381Z,27.74
2023-06-27T17:06:06.581Z,27.83
2023-06-27T17:08:53.520Z,27.98
2023-06-27T17:11:40.372Z,27.90
2023-06-27T17:14:27.502Z,27.89
2023-06-27T17:17:14.498Z,27.99
2023-06-27T17:20:01.395Z,27.95
2023-06-27T17:22:48.344Z,28.02
2023-06-27T17:25:35.184Z,27.97
2023-06-27T17:28:22.140Z,27.87
2023-06-27T17:31:09.277Z,28.03
2023-06-27T17:33:56.178Z,27.94
2023-06-27T17:36:43.239Z,27.91
2023-06-27T17:39:30.106Z,28.05
2023-06-27T17:42:16.999Z,28.00
2023-06-27T17:45:04.202Z,28.08
2023-06-27T17:47:52.396Z,28.26
2023-06-27T17:50:40.154Z,28.14
2023-06-27T17:53:27.343Z,28.15
2023-06-27T17:56:15.493Z,28.34
2023-06-27T17:59:02.365Z,28.24
2023-06-27T18:01:53.073Z,28.35
2023-06-27T18:04:40.194Z,28.35
2023-06-27T18:07:37.050Z,28.41
2023-06-27T18:10:25.795Z,28.22
2023-06-27T18:13:12.885Z,28.20
2023-06-27T18:15:59.752Z,28.29
2023-06-27T18:18:46.705Z,28.31
2023-06-27T18:21:33.738Z,28.33
2023-06-27T18:24:20.635Z,28.31
2023-06-27T18:27:07.760Z,28.34
2023-06-27T18:29:54.658Z,28.21
2023-06-27T18:32:46.246Z,28.36
2023-06-27T18:35:35.134Z,28.25
2023-06-27T18:38:22.094Z,28.39
2023-06-27T18:41:09.085Z,28.19
2023-06-27T18:43:55.998Z,28.21
2023-06-27T18:46:42.867Z,28.37
2023-06-27T18:49:32.829Z,28.18
2023-06-27T18:52:19.841Z,28.14
2023-06-27T18:55:06.881Z,28.17
2023-06-27T18:57:53.723Z,28.37
2023-06-27T19:00:41.617Z,28.20
2023-06-27T19:03:30.111Z,28.17
2023-06-27T19:06:17.095Z,28.17
2023-06-27T19:09:04.336Z,28.16
2023-06-27T19:11:51.920Z,28.37
2023-06-27T19:14:38.836Z,28.27
2023-06-27T19:17:26.106Z,28.31
2023-06-27T19:20:13.552Z,28.44
2023-06-27T19:23:01.430Z,28.52
2023-06-27T19:25:48.331Z,28.39
2023-06-27T19:28:36.798Z,28.49
2023-06-27T19:31:23.780Z,28.62
2023-06-27T19:34:10.762Z,28.52
2023-06-27T19:36:57.716Z,28.71
2023-06-27T19:39:46.439Z,28.79
2023-06-27T19:42:35.564Z,28.83
2023-06-27T19:45:23.693Z,28.98
2023-06-27T19:48:10.556Z,29.14
2023-06-27T19:51:00.186Z,29.14
2023-06-27T19:53:47.071Z,29.36
2023-06-27T19:56:35.597Z,29.36
2023-06-27T19:59:22.499Z,29.45
2023-06-27T20:02:09.413Z,29.52
2023-06-27T20:04:56.268Z,29.50
2023-06-27T20:07:43.242Z,29.74
2023-06-27T20:10:30.245Z,29.72
2023-06-27T20:13:17.433Z,29.80
2023-06-27T20:16:04.543Z,29.93
2023-06-27T20:18:51.405Z,29.81
2023-06-27T20:21:38.943Z,30.12
2023-06-27T20:24:25.876Z,30.24
2023-06-27T20:27:13.664Z,30.27
2023-06-27T20:30:00.494Z,30.39
2023-06-27T20:32:47.495Z,30.45
2023-06-27T20:35:34.495Z,30.68
2023-06-27T20:38:21.333Z,30.71
2023-06-27T20:41:08.180Z,30.75
2023-06-27T20:43:55.112Z,30.92
2023-06-27T20:46:41.945Z,30.97
2023-06-27T20:49:28.788Z,31.19
2023-06-27T20:52:15.695Z,31.49
2023-06-27T20:55:02.697Z,31.44
2023-06-27T20:57:49.538Z,31.58
2023-06-27T21:00:39.017Z,31.64
2023-06-27T21:03:26.200Z,31.66
2023-06-27T21:06:17.930Z,31.71
2023-06-27T21:09:04.946Z,31.75
2023-06-27T21:11:51.777Z,31.76
2023-06-27T21:14:38.650Z,31.83
2023-06-27T21:17:29.288Z,31.96
2023-06-27T21:20:16.281Z,31.93
2023-06-27T21:23:03.137Z,32.13
2023-06-27T21:25:52.261Z,32.32
2023-06-27T21:28:39.517Z,32.34
2023-06-27T21:31:26.443Z,32.41
2023-06-27T21:34:13.413Z,32.75
2023-06-27T21:37:00.265Z,32.98
2023-06-27T21:39:47.242Z,33.14
2023-06-27T21:42:34.095Z,33.26
2023-06-27T21:45:21.062Z,33.29
2023-06-27T21:48:08.031Z,33.35
2023-06-27T21:50:55.003Z,33.16
2023-06-27T21:53:41.951Z,33.09
2023-06-27T21:56:28.814Z,33.25
2023-06-27T21:59:16.046Z,33.29
2023-06-27T22:02:03.363Z,33.42
2023-06-27T22:04:50.545Z,33.56
2023-06-27T22:07:39.004Z,33.61
2023-06-27T22:10:25.986Z,33.85
2023-06-27T22:13:12.863Z,34.01
2023-06-27T22:15:59.769Z,34.04
2023-06-27T22:18:50.060Z,34.07
2023-06-27T22:21:36.985Z,34.28
2023-06-27T22:24:29.570Z,34.23
2023-06-27T22:27:16.472Z,34.38
2023-06-27T22:30:05.908Z,34.36
2023-06-27T22:32:52.842Z,34.76
2023-06-27T22:35:39.802Z,34.92
2023-06-27T22:38:26.656Z,35.13
2023-06-27T22:41:13.553Z,35.39
2023-06-27T22:44:00.409Z,35.57
2023-06-27T22:46:47.322Z,35.79
2023-06-27T22:49:34.872Z,35.76
2023-06-27T22:52:21.726Z,36.10
2023-06-27T22:55:08.935Z,36.11
2023-06-27T22:57:55.767Z,36.41
2023-06-27T23:00:43.288Z,36.60
2023-06-27T23:03:30.924Z,36.75
2023-06-27T23:06:17.811Z,36.74
2023-06-27T23:09:05.037Z,36.83
2023-06-27T23:11:51.974Z,37.08
2023-06-27T23:14:38.806Z,37.20
2023-06-27T23:17:25.699Z,37.30
2023-06-27T23:20:12.738Z,37.53
2023-06-27T23:22:59.966Z,37.79
2023-06-27T23:25:49.577Z,37.85
2023-06-27T23:28:43.379Z,38.14
2023-06-27T23:31:35.131Z,38.13
2023-06-27T23:34:22.253Z,38.08
2023-06-27T23:37:11.051Z,38.38
2023-06-27T23:39:57.997Z,38.47
2023-06-27T23:42:44.869Z,38.60
2023-06-27T23:45:31.735Z,38.78
2023-06-27T23:48:18.602Z,38.89
2023-06-27T23:51:05.433Z,39.18
2023-06-27T23:53:52.295Z,39.27
2023-06-27T23:56:39.143Z,39.46
2023-06-27T23:59:26.281Z,39.62
